Alexandra — WDD5677 — position and weather

sailwx.info

Track history (hours):
 
Tides and Currents Weather Stations Pressure Air Temp Water Temp Dewpoint Dewpoint Depression Visibility Wind Speed Wind Dir Waves Ship Positions

Alexandra

Owner: Weeks Marine, Inc., Cranford, NJ. More information available from US FCC via Universal Licensing System and Coast Guard Vessel Documentation Center.

Last reported at 2017-Mar-27 13:33 UTC. Time now 2017-Mar-27 14:24 UTC.
Position N 40°41' W 074°05'.

Length 37 m; draft 5 m.

Type: Tug. MMSI: 367161950.

Date/timePositionNaut miles runAvg speedWind from/ knotsBaromVisibWave heightAir tempDewpointWater temp
2017-Mar-27 13:33N 40°41' W 074°05'0 0.0
2017-Mar-27 12:33N 40°41' W 074°05'0 0.0
2017-Mar-27 11:33N 40°41' W 074°05'0 0.0
2017-Mar-27 10:33N 40°41' W 074°05'0 0.0
2017-Mar-27 09:33N 40°41' W 074°05'0 0.0
2017-Mar-27 08:33N 40°41' W 074°05'0 0.0
2017-Mar-27 07:33N 40°41' W 074°05'0 0.0
2017-Mar-27 06:33N 40°41' W 074°05'0 0.0
2017-Mar-27 05:33N 40°41' W 074°05'0 0.0
2017-Mar-27 04:33N 40°41' W 074°05'0 0.0
2017-Mar-27 03:33N 40°41' W 074°05'0 0.0
2017-Mar-27 02:33N 40°41' W 074°05'0 0.0
2017-Mar-27 01:33N 40°41' W 074°05'0 0.0
2017-Mar-27 00:33N 40°41' W 074°05'0 0.0
2017-Mar-26 23:33N 40°41' W 074°05'0 0.2
2017-Mar-26 22:34N 40°40' W 074°04'4 3.6
2017-Mar-26 21:34N 40°37' W 074°03'3 3.1
2017-Mar-26 20:32N 40°34' W 074°02'6 6.1
2017-Mar-26 19:33N 40°30' W 073°56'49 6.9
2017-Mar-26 12:23N 39°41' W 074°01'65 4.7
2017-Mar-25 22:33N 39°05' W 075°11'7 6.9
2017-Mar-25 21:33N 39°11' W 075°16'8 8.1
2017-Mar-25 20:33N 39°17' W 075°22'1010.3
2017-Mar-25 19:33N 39°25' W 075°31'9 9.5
2017-Mar-25 18:33N 39°34' W 075°33'9 8.8
2017-Mar-25 17:33N 39°43' W 075°31'7 7.2
2017-Mar-25 16:33N 39°48' W 075°25'2 2.4
2017-Mar-25 15:33N 39°50' W 075°22'0 0.2
2017-Mar-25 14:33N 39°49' W 075°22'3 2.8
2017-Mar-25 13:33N 39°51' W 075°18'7 7.4
2017-Mar-25 12:33N 39°53' W 075°09'5 4.6
2017-Mar-25 11:33N 39°57' W 075°08'0 0.0
2017-Mar-25 10:33N 39°57' W 075°08'0 0.0
2017-Mar-25 09:33N 39°57' W 075°08'0 0.0
2017-Mar-25 08:33N 39°57' W 075°08'0 0.0
2017-Mar-25 07:33N 39°57' W 075°08'0 0.0
2017-Mar-25 06:33N 39°57' W 075°08'0 0.0
2017-Mar-25 05:33N 39°57' W 075°08'0 0.0
2017-Mar-25 04:33N 39°57' W 075°08'0 0.0
2017-Mar-25 03:33N 39°57' W 075°08'0 0.0
2017-Mar-25 02:33N 39°57' W 075°08'0 0.0
2017-Mar-25 01:33N 39°57' W 075°08'0 0.0
2017-Mar-25 00:33N 39°57' W 075°08'0 0.0
2017-Mar-24 23:33N 39°57' W 075°08'0 0.0
2017-Mar-24 22:33N 39°57' W 075°08'5 4.7
2017-Mar-24 21:33N 39°53' W 075°09'9 8.6
2017-Mar-24 20:33N 39°51' W 075°20'9 9.0
2017-Mar-24 19:33N 39°45' W 075°29'9 8.7
2017-Mar-24 18:33N 39°37' W 075°35'8 8.3
2017-Mar-24 17:33N 39°29' W 075°34'9 8.8
2017-Mar-24 16:33N 39°22' W 075°27'9 9.3
2017-Mar-24 15:33N 39°15' W 075°19'30 9.9
2017-Mar-24 12:33N 38°49' W 075°01'10 9.8
2017-Mar-24 11:33N 38°51' W 074°49'1010.5
2017-Mar-24 10:33N 38°60' W 074°41'1510.3
2017-Mar-24 09:05N 39°11' W 074°27'1810.0
2017-Mar-24 07:16N 39°25' W 074°12'710.0
2017-Mar-24 06:31N 39°31' W 074°07'1010.0
2017-Mar-24 05:32N 39°40' W 074°02'1010.2
2017-Mar-24 04:31N 39°50' W 073°58'3210.4
2017-Mar-24 01:26N 40°22' W 073°54'10 9.4
2017-Mar-24 00:22N 40°31' W 073°59'910.5
2017-Mar-23 23:33N 40°39' W 074°04'2 2.0
2017-Mar-23 22:33N 40°39' W 074°07'0 0.0
2017-Mar-23 21:33N 40°39' W 074°07'0 0.0
2017-Mar-23 20:33N 40°39' W 074°07'2 2.2
2017-Mar-23 19:33N 40°41' W 074°05'0 0.0
2017-Mar-23 18:33N 40°41' W 074°05'0 0.1
2017-Mar-23 17:33N 40°41' W 074°05'0 0.1
2017-Mar-23 16:33N 40°41' W 074°05'0 0.0
2017-Mar-23 15:33N 40°41' W 074°05'0 0.0
2017-Mar-23 14:33N 40°41' W 074°05'0 0.0
2017-Mar-23 13:33N 40°41' W 074°05'0 0.0
2017-Mar-23 12:33N 40°41' W 074°05'0 0.0
2017-Mar-23 11:33N 40°41' W 074°05'0 0.0
2017-Mar-23 10:33N 40°41' W 074°05'0 0.0
2017-Mar-23 09:33N 40°41' W 074°05'0 0.0
2017-Mar-23 08:33N 40°41' W 074°05'0 0.0
2017-Mar-23 07:33N 40°41' W 074°05'0 0.0
2017-Mar-23 06:33N 40°41' W 074°05'0 0.0
2017-Mar-23 05:33N 40°41' W 074°05'0 0.0
2017-Mar-23 04:33N 40°41' W 074°05'0 0.0
2017-Mar-23 03:33N 40°41' W 074°05'0 0.0
2017-Mar-23 02:33N 40°41' W 074°05'0 0.0
2017-Mar-23 01:33N 40°41' W 074°05'0 0.0
2017-Mar-23 00:33N 40°41' W 074°05'0 0.0
2017-Mar-22 23:33N 40°41' W 074°05'0 0.0
2017-Mar-22 22:33N 40°41' W 074°05'0 0.0
2017-Mar-22 21:33N 40°41' W 074°05'0 0.0
2017-Mar-22 20:33N 40°41' W 074°05'0 0.0
2017-Mar-22 19:33N 40°41' W 074°05'0 0.0
2017-Mar-22 18:33N 40°41' W 074°05'0 0.0
2017-Mar-22 17:33N 40°41' W 074°05'0 0.0
2017-Mar-22 16:33N 40°41' W 074°05'0 0.0
2017-Mar-22 15:33N 40°41' W 074°05'0 0.0
2017-Mar-22 14:33N 40°41' W 074°05'0 0.0
2017-Mar-22 13:33N 40°41' W 074°05'0 0.0
2017-Mar-22 12:33N 40°41' W 074°05'0 0.0
2017-Mar-22 11:33N 40°41' W 074°05'0 0.0
2017-Mar-22 10:33N 40°41' W 074°05'0 0.0
2017-Mar-22 09:33N 40°41' W 074°05'0 0.0
2017-Mar-22 08:33N 40°41' W 074°05'0 0.0
2017-Mar-22 07:33N 40°41' W 074°05'0 0.0
2017-Mar-22 06:33N 40°41' W 074°05'0 0.0
2017-Mar-22 05:33N 40°41' W 074°05'0 0.0
2017-Mar-22 04:33N 40°41' W 074°05'0 0.0
2017-Mar-22 03:33N 40°41' W 074°05'1 1.3
2017-Mar-22 02:33N 40°40' W 074°04'6 5.5
2017-Mar-22 01:33N 40°34' W 074°02'4 3.8
2017-Mar-22 00:33N 40°38' W 074°03'3 3.0
2017-Mar-21 23:33N 40°41' W 074°05'0 0.0
2017-Mar-21 22:33N 40°41' W 074°05'0 0.0
2017-Mar-21 21:33N 40°41' W 074°05'0 0.0
2017-Mar-21 20:33N 40°41' W 074°05'0 0.0
2017-Mar-21 19:33N 40°41' W 074°05'0 0.0
2017-Mar-21 18:33N 40°41' W 074°05'0 0.0
2017-Mar-21 17:33N 40°41' W 074°05'0 0.0
2017-Mar-21 16:33N 40°41' W 074°05'0 0.0
2017-Mar-21 15:33N 40°41' W 074°05'0 0.0
2017-Mar-21 14:33N 40°41' W 074°05'0 0.0
2017-Mar-21 13:33N 40°41' W 074°05'0 0.0
2017-Mar-21 12:33N 40°41' W 074°05'0 0.0
2017-Mar-21 11:33N 40°41' W 074°05'0 0.0
2017-Mar-21 10:33N 40°41' W 074°05'0 0.0
2017-Mar-21 09:33N 40°41' W 074°05'0 0.0
2017-Mar-21 08:33N 40°41' W 074°05'0 0.0
2017-Mar-21 07:33N 40°41' W 074°05'0 0.0
2017-Mar-21 06:33N 40°41' W 074°05'0 0.0
2017-Mar-21 05:33N 40°41' W 074°05'0 0.0
2017-Mar-21 04:33N 40°41' W 074°05'0 0.0
2017-Mar-21 03:33N 40°41' W 074°05'0 0.0
2017-Mar-21 02:33N 40°41' W 074°05'0 0.0
2017-Mar-21 01:33N 40°41' W 074°05'0 0.0
2017-Mar-21 00:33N 40°41' W 074°05'0 0.0
2017-Mar-20 23:33N 40°41' W 074°05'0 0.0
2017-Mar-20 22:33N 40°41' W 074°05'0 0.0
2017-Mar-20 21:33N 40°41' W 074°05'0 0.0
2017-Mar-20 20:33N 40°41' W 074°05'0 0.0
2017-Mar-20 19:33N 40°41' W 074°05'0 0.0
2017-Mar-20 18:33N 40°41' W 074°05'0 0.0
2017-Mar-20 17:33N 40°41' W 074°05'0 0.0
2017-Mar-20 16:33N 40°41' W 074°05'0 0.0
2017-Mar-20 15:33N 40°41' W 074°05'0 0.0
2017-Mar-20 14:33N 40°41' W 074°05'0 0.0
2017-Mar-20 13:33N 40°41' W 074°05'0 0.0
2017-Mar-20 12:33N 40°41' W 074°05'0 0.0
2017-Mar-20 11:33N 40°41' W 074°05'0 0.0
2017-Mar-20 10:33N 40°41' W 074°05'0 0.0
2017-Mar-20 09:34N 40°41' W 074°05'0 0.0
2017-Mar-20 08:33N 40°41' W 074°05'0 0.0
2017-Mar-20 07:33N 40°41' W 074°05'0 0.0
2017-Mar-20 06:33N 40°41' W 074°05'0 0.0
2017-Mar-20 05:33N 40°41' W 074°05'0 0.0
2017-Mar-20 04:33N 40°41' W 074°05'0 0.0
2017-Mar-20 03:33N 40°41' W 074°05'0 0.0
2017-Mar-20 02:33N 40°41' W 074°05'0 0.0
2017-Mar-20 01:33N 40°41' W 074°05'0 0.0
2017-Mar-20 00:33N 40°41' W 074°05'0 0.0
2017-Mar-19 23:33N 40°41' W 074°05'0 0.0
2017-Mar-19 22:33N 40°41' W 074°05'0 0.0
2017-Mar-19 21:33N 40°41' W 074°05'0 0.0
2017-Mar-19 20:33N 40°41' W 074°05'0 0.0
2017-Mar-19 19:33N 40°41' W 074°05'0 0.0
2017-Mar-19 18:33N 40°41' W 074°05'0 0.0
2017-Mar-19 17:33N 40°41' W 074°05'0 0.0
2017-Mar-19 16:33N 40°41' W 074°05'0 0.0
2017-Mar-19 15:33N 40°41' W 074°05'0 0.0
2017-Mar-19 14:33N 40°41' W 074°05'0 0.0
2017-Mar-19 13:33N 40°41' W 074°05'0 0.0
2017-Mar-19 12:33N 40°41' W 074°05'0 0.0
2017-Mar-19 11:33N 40°41' W 074°05'0 0.0
2017-Mar-19 10:33N 40°41' W 074°05'0 0.0
2017-Mar-19 09:33N 40°41' W 074°05'0 0.0
2017-Mar-19 08:33N 40°41' W 074°05'0 0.0
2017-Mar-19 07:33N 40°41' W 074°05'0 0.0
2017-Mar-19 06:33N 40°41' W 074°05'0 0.0
2017-Mar-19 05:33N 40°41' W 074°05'0 0.0
2017-Mar-19 04:33N 40°41' W 074°05'0 0.0
2017-Mar-19 03:33N 40°41' W 074°05'0 0.0
2017-Mar-19 02:33N 40°41' W 074°05'0 0.0
2017-Mar-19 01:33N 40°41' W 074°05'0 0.0
2017-Mar-19 00:33N 40°41' W 074°05'0 0.0
2017-Mar-18 23:33N 40°41' W 074°05'0 0.0
2017-Mar-18 22:33N 40°41' W 074°05'0 0.0
2017-Mar-18 21:33N 40°41' W 074°05'0 0.0
2017-Mar-18 20:33N 40°41' W 074°05'0 0.0
2017-Mar-18 19:33N 40°41' W 074°05'0 0.0
2017-Mar-18 18:33N 40°41' W 074°05'0 0.0
2017-Mar-18 17:33N 40°41' W 074°05'0 0.0
2017-Mar-18 16:33N 40°41' W 074°05'0 0.0
2017-Mar-18 15:33N 40°41' W 074°05'0 0.0
2017-Mar-18 14:33N 40°41' W 074°05'0 0.0
2017-Mar-18 13:33N 40°41' W 074°05'0 0.0
2017-Mar-18 12:33N 40°41' W 074°05'0 0.0
2017-Mar-18 11:33N 40°41' W 074°05'0 0.0
2017-Mar-18 10:33N 40°41' W 074°05'0 0.0
2017-Mar-18 09:33N 40°41' W 074°05'0 0.0
2017-Mar-18 08:33N 40°41' W 074°05'0 0.0
2017-Mar-18 07:33N 40°41' W 074°05'0 0.0
2017-Mar-18 06:33N 40°41' W 074°05'0 0.0
2017-Mar-18 05:33N 40°41' W 074°05'0 0.0
2017-Mar-18 04:33N 40°41' W 074°05'0 0.0
2017-Mar-18 03:33N 40°41' W 074°05'0 0.0
2017-Mar-18 02:33N 40°41' W 074°05'0 0.0
2017-Mar-18 01:33N 40°41' W 074°05'0 0.0
2017-Mar-18 00:33N 40°41' W 074°05'0 0.0
2017-Mar-17 23:33N 40°41' W 074°05'0 0.0
2017-Mar-17 22:33N 40°41' W 074°05'0 0.0
2017-Mar-17 21:33N 40°41' W 074°05'0 0.0
2017-Mar-17 19:33N 40°41' W 074°05'0 0.0
2017-Mar-17 18:33N 40°41' W 074°05'0 0.0
2017-Mar-17 17:33N 40°41' W 074°05'0 0.0
2017-Mar-17 16:33N 40°41' W 074°05'0 0.0
2017-Mar-17 15:33N 40°41' W 074°05'0 0.0
2017-Mar-17 14:33N 40°41' W 074°05'0 0.0
2017-Mar-17 13:33N 40°41' W 074°05'  
Track history (hours):
 
Tides and Currents Weather Stations Pressure Air Temp Water Temp Dewpoint Dewpoint Depression Visibility Wind Speed Wind Dir Waves Ship Positions

Alexandra

Owner: Weeks Marine, Inc., Cranford, NJ. More information available from US FCC via Universal Licensing System and Coast Guard Vessel Documentation Center.

Last reported at 2017-Mar-27 13:33 UTC. Time now 2017-Mar-27 14:24 UTC.
Position N 40°41' W 074°05'.

Length 37 m; draft 5 m.

Type: Tug. MMSI: 367161950.

Date/timePositionNaut miles runAvg speedWind from/ knotsBaromVisibWave heightAir tempDewpointWater temp
2017-Mar-27 13:33N 40°41' W 074°05'0 0.0
2017-Mar-27 12:33N 40°41' W 074°05'0 0.0
2017-Mar-27 11:33N 40°41' W 074°05'0 0.0
2017-Mar-27 10:33N 40°41' W 074°05'0 0.0
2017-Mar-27 09:33N 40°41' W 074°05'0 0.0
2017-Mar-27 08:33N 40°41' W 074°05'0 0.0
2017-Mar-27 07:33N 40°41' W 074°05'0 0.0
2017-Mar-27 06:33N 40°41' W 074°05'0 0.0
2017-Mar-27 05:33N 40°41' W 074°05'0 0.0
2017-Mar-27 04:33N 40°41' W 074°05'0 0.0
2017-Mar-27 03:33N 40°41' W 074°05'0 0.0
2017-Mar-27 02:33N 40°41' W 074°05'0 0.0
2017-Mar-27 01:33N 40°41' W 074°05'0 0.0
2017-Mar-27 00:33N 40°41' W 074°05'0 0.0
2017-Mar-26 23:33N 40°41' W 074°05'0 0.2
2017-Mar-26 22:34N 40°40' W 074°04'4 3.6
2017-Mar-26 21:34N 40°37' W 074°03'3 3.1
2017-Mar-26 20:32N 40°34' W 074°02'6 6.1
2017-Mar-26 19:33N 40°30' W 073°56'49 6.9
2017-Mar-26 12:23N 39°41' W 074°01'65 4.7
2017-Mar-25 22:33N 39°05' W 075°11'7 6.9
2017-Mar-25 21:33N 39°11' W 075°16'8 8.1
2017-Mar-25 20:33N 39°17' W 075°22'1010.3
2017-Mar-25 19:33N 39°25' W 075°31'9 9.5
2017-Mar-25 18:33N 39°34' W 075°33'9 8.8
2017-Mar-25 17:33N 39°43' W 075°31'7 7.2
2017-Mar-25 16:33N 39°48' W 075°25'2 2.4
2017-Mar-25 15:33N 39°50' W 075°22'0 0.2
2017-Mar-25 14:33N 39°49' W 075°22'3 2.8
2017-Mar-25 13:33N 39°51' W 075°18'7 7.4
2017-Mar-25 12:33N 39°53' W 075°09'5 4.6
2017-Mar-25 11:33N 39°57' W 075°08'0 0.0
2017-Mar-25 10:33N 39°57' W 075°08'0 0.0
2017-Mar-25 09:33N 39°57' W 075°08'0 0.0
2017-Mar-25 08:33N 39°57' W 075°08'0 0.0
2017-Mar-25 07:33N 39°57' W 075°08'0 0.0
2017-Mar-25 06:33N 39°57' W 075°08'0 0.0
2017-Mar-25 05:33N 39°57' W 075°08'0 0.0
2017-Mar-25 04:33N 39°57' W 075°08'0 0.0
2017-Mar-25 03:33N 39°57' W 075°08'0 0.0
2017-Mar-25 02:33N 39°57' W 075°08'0 0.0
2017-Mar-25 01:33N 39°57' W 075°08'0 0.0
2017-Mar-25 00:33N 39°57' W 075°08'0 0.0
2017-Mar-24 23:33N 39°57' W 075°08'0 0.0
2017-Mar-24 22:33N 39°57' W 075°08'5 4.7
2017-Mar-24 21:33N 39°53' W 075°09'9 8.6
2017-Mar-24 20:33N 39°51' W 075°20'9 9.0
2017-Mar-24 19:33N 39°45' W 075°29'9 8.7
2017-Mar-24 18:33N 39°37' W 075°35'8 8.3
2017-Mar-24 17:33N 39°29' W 075°34'9 8.8
2017-Mar-24 16:33N 39°22' W 075°27'9 9.3
2017-Mar-24 15:33N 39°15' W 075°19'30 9.9
2017-Mar-24 12:33N 38°49' W 075°01'10 9.8
2017-Mar-24 11:33N 38°51' W 074°49'1010.5
2017-Mar-24 10:33N 38°60' W 074°41'1510.3
2017-Mar-24 09:05N 39°11' W 074°27'1810.0
2017-Mar-24 07:16N 39°25' W 074°12'710.0
2017-Mar-24 06:31N 39°31' W 074°07'1010.0
2017-Mar-24 05:32N 39°40' W 074°02'1010.2
2017-Mar-24 04:31N 39°50' W 073°58'3210.4
2017-Mar-24 01:26N 40°22' W 073°54'10 9.4
2017-Mar-24 00:22N 40°31' W 073°59'910.5
2017-Mar-23 23:33N 40°39' W 074°04'2 2.0
2017-Mar-23 22:33N 40°39' W 074°07'0 0.0
2017-Mar-23 21:33N 40°39' W 074°07'0 0.0
2017-Mar-23 20:33N 40°39' W 074°07'2 2.2
2017-Mar-23 19:33N 40°41' W 074°05'0 0.0
2017-Mar-23 18:33N 40°41' W 074°05'0 0.1
2017-Mar-23 17:33N 40°41' W 074°05'0 0.1
2017-Mar-23 16:33N 40°41' W 074°05'0 0.0
2017-Mar-23 15:33N 40°41' W 074°05'0 0.0
2017-Mar-23 14:33N 40°41' W 074°05'0 0.0
2017-Mar-23 13:33N 40°41' W 074°05'0 0.0
2017-Mar-23 12:33N 40°41' W 074°05'0 0.0
2017-Mar-23 11:33N 40°41' W 074°05'0 0.0
2017-Mar-23 10:33N 40°41' W 074°05'0 0.0
2017-Mar-23 09:33N 40°41' W 074°05'0 0.0
2017-Mar-23 08:33N 40°41' W 074°05'0 0.0
2017-Mar-23 07:33N 40°41' W 074°05'0 0.0
2017-Mar-23 06:33N 40°41' W 074°05'0 0.0
2017-Mar-23 05:33N 40°41' W 074°05'0 0.0
2017-Mar-23 04:33N 40°41' W 074°05'0 0.0
2017-Mar-23 03:33N 40°41' W 074°05'0 0.0
2017-Mar-23 02:33N 40°41' W 074°05'0 0.0
2017-Mar-23 01:33N 40°41' W 074°05'0 0.0
2017-Mar-23 00:33N 40°41' W 074°05'0 0.0
2017-Mar-22 23:33N 40°41' W 074°05'0 0.0
2017-Mar-22 22:33N 40°41' W 074°05'0 0.0
2017-Mar-22 21:33N 40°41' W 074°05'0 0.0
2017-Mar-22 20:33N 40°41' W 074°05'0 0.0
2017-Mar-22 19:33N 40°41' W 074°05'0 0.0
2017-Mar-22 18:33N 40°41' W 074°05'0 0.0
2017-Mar-22 17:33N 40°41' W 074°05'0 0.0
2017-Mar-22 16:33N 40°41' W 074°05'0 0.0
2017-Mar-22 15:33N 40°41' W 074°05'0 0.0
2017-Mar-22 14:33N 40°41' W 074°05'0 0.0
2017-Mar-22 13:33N 40°41' W 074°05'0 0.0
2017-Mar-22 12:33N 40°41' W 074°05'0 0.0
2017-Mar-22 11:33N 40°41' W 074°05'0 0.0
2017-Mar-22 10:33N 40°41' W 074°05'0 0.0
2017-Mar-22 09:33N 40°41' W 074°05'0 0.0
2017-Mar-22 08:33N 40°41' W 074°05'0 0.0
2017-Mar-22 07:33N 40°41' W 074°05'0 0.0
2017-Mar-22 06:33N 40°41' W 074°05'0 0.0
2017-Mar-22 05:33N 40°41' W 074°05'0 0.0
2017-Mar-22 04:33N 40°41' W 074°05'0 0.0
2017-Mar-22 03:33N 40°41' W 074°05'1 1.3
2017-Mar-22 02:33N 40°40' W 074°04'6 5.5
2017-Mar-22 01:33N 40°34' W 074°02'4 3.8
2017-Mar-22 00:33N 40°38' W 074°03'3 3.0
2017-Mar-21 23:33N 40°41' W 074°05'0 0.0
2017-Mar-21 22:33N 40°41' W 074°05'0 0.0
2017-Mar-21 21:33N 40°41' W 074°05'0 0.0
2017-Mar-21 20:33N 40°41' W 074°05'0 0.0
2017-Mar-21 19:33N 40°41' W 074°05'0 0.0
2017-Mar-21 18:33N 40°41' W 074°05'0 0.0
2017-Mar-21 17:33N 40°41' W 074°05'0 0.0
2017-Mar-21 16:33N 40°41' W 074°05'0 0.0
2017-Mar-21 15:33N 40°41' W 074°05'0 0.0
2017-Mar-21 14:33N 40°41' W 074°05'0 0.0
2017-Mar-21 13:33N 40°41' W 074°05'0 0.0
2017-Mar-21 12:33N 40°41' W 074°05'0 0.0
2017-Mar-21 11:33N 40°41' W 074°05'0 0.0
2017-Mar-21 10:33N 40°41' W 074°05'0 0.0
2017-Mar-21 09:33N 40°41' W 074°05'0 0.0
2017-Mar-21 08:33N 40°41' W 074°05'0 0.0
2017-Mar-21 07:33N 40°41' W 074°05'0 0.0
2017-Mar-21 06:33N 40°41' W 074°05'0 0.0
2017-Mar-21 05:33N 40°41' W 074°05'0 0.0
2017-Mar-21 04:33N 40°41' W 074°05'0 0.0
2017-Mar-21 03:33N 40°41' W 074°05'0 0.0
2017-Mar-21 02:33N 40°41' W 074°05'0 0.0
2017-Mar-21 01:33N 40°41' W 074°05'0 0.0
2017-Mar-21 00:33N 40°41' W 074°05'0 0.0
2017-Mar-20 23:33N 40°41' W 074°05'0 0.0
2017-Mar-20 22:33N 40°41' W 074°05'0 0.0
2017-Mar-20 21:33N 40°41' W 074°05'0 0.0
2017-Mar-20 20:33N 40°41' W 074°05'0 0.0
2017-Mar-20 19:33N 40°41' W 074°05'0 0.0
2017-Mar-20 18:33N 40°41' W 074°05'0 0.0
2017-Mar-20 17:33N 40°41' W 074°05'0 0.0
2017-Mar-20 16:33N 40°41' W 074°05'0 0.0
2017-Mar-20 15:33N 40°41' W 074°05'0 0.0
2017-Mar-20 14:33N 40°41' W 074°05'0 0.0
2017-Mar-20 13:33N 40°41' W 074°05'0 0.0
2017-Mar-20 12:33N 40°41' W 074°05'0 0.0
2017-Mar-20 11:33N 40°41' W 074°05'0 0.0
2017-Mar-20 10:33N 40°41' W 074°05'0 0.0
2017-Mar-20 09:34N 40°41' W 074°05'0 0.0
2017-Mar-20 08:33N 40°41' W 074°05'0 0.0
2017-Mar-20 07:33N 40°41' W 074°05'0 0.0
2017-Mar-20 06:33N 40°41' W 074°05'0 0.0
2017-Mar-20 05:33N 40°41' W 074°05'0 0.0
2017-Mar-20 04:33N 40°41' W 074°05'0 0.0
2017-Mar-20 03:33N 40°41' W 074°05'0 0.0
2017-Mar-20 02:33N 40°41' W 074°05'0 0.0
2017-Mar-20 01:33N 40°41' W 074°05'0 0.0
2017-Mar-20 00:33N 40°41' W 074°05'0 0.0
2017-Mar-19 23:33N 40°41' W 074°05'0 0.0
2017-Mar-19 22:33N 40°41' W 074°05'0 0.0
2017-Mar-19 21:33N 40°41' W 074°05'0 0.0
2017-Mar-19 20:33N 40°41' W 074°05'0 0.0
2017-Mar-19 19:33N 40°41' W 074°05'0 0.0
2017-Mar-19 18:33N 40°41' W 074°05'0 0.0
2017-Mar-19 17:33N 40°41' W 074°05'0 0.0
2017-Mar-19 16:33N 40°41' W 074°05'0 0.0
2017-Mar-19 15:33N 40°41' W 074°05'0 0.0
2017-Mar-19 14:33N 40°41' W 074°05'0 0.0
2017-Mar-19 13:33N 40°41' W 074°05'0 0.0
2017-Mar-19 12:33N 40°41' W 074°05'0 0.0
2017-Mar-19 11:33N 40°41' W 074°05'0 0.0
2017-Mar-19 10:33N 40°41' W 074°05'0 0.0
2017-Mar-19 09:33N 40°41' W 074°05'0 0.0
2017-Mar-19 08:33N 40°41' W 074°05'0 0.0
2017-Mar-19 07:33N 40°41' W 074°05'0 0.0
2017-Mar-19 06:33N 40°41' W 074°05'0 0.0
2017-Mar-19 05:33N 40°41' W 074°05'0 0.0
2017-Mar-19 04:33N 40°41' W 074°05'0 0.0
2017-Mar-19 03:33N 40°41' W 074°05'0 0.0
2017-Mar-19 02:33N 40°41' W 074°05'0 0.0
2017-Mar-19 01:33N 40°41' W 074°05'0 0.0
2017-Mar-19 00:33N 40°41' W 074°05'0 0.0
2017-Mar-18 23:33N 40°41' W 074°05'0 0.0
2017-Mar-18 22:33N 40°41' W 074°05'0 0.0
2017-Mar-18 21:33N 40°41' W 074°05'0 0.0
2017-Mar-18 20:33N 40°41' W 074°05'0 0.0
2017-Mar-18 19:33N 40°41' W 074°05'0 0.0
2017-Mar-18 18:33N 40°41' W 074°05'0 0.0
2017-Mar-18 17:33N 40°41' W 074°05'0 0.0
2017-Mar-18 16:33N 40°41' W 074°05'0 0.0
2017-Mar-18 15:33N 40°41' W 074°05'0 0.0
2017-Mar-18 14:33N 40°41' W 074°05'0 0.0
2017-Mar-18 13:33N 40°41' W 074°05'0 0.0
2017-Mar-18 12:33N 40°41' W 074°05'0 0.0
2017-Mar-18 11:33N 40°41' W 074°05'0 0.0
2017-Mar-18 10:33N 40°41' W 074°05'0 0.0
2017-Mar-18 09:33N 40°41' W 074°05'0 0.0
2017-Mar-18 08:33N 40°41' W 074°05'0 0.0
2017-Mar-18 07:33N 40°41' W 074°05'0 0.0
2017-Mar-18 06:33N 40°41' W 074°05'0 0.0
2017-Mar-18 05:33N 40°41' W 074°05'0 0.0
2017-Mar-18 04:33N 40°41' W 074°05'0 0.0
2017-Mar-18 03:33N 40°41' W 074°05'0 0.0
2017-Mar-18 02:33N 40°41' W 074°05'0 0.0
2017-Mar-18 01:33N 40°41' W 074°05'0 0.0
2017-Mar-18 00:33N 40°41' W 074°05'0 0.0
2017-Mar-17 23:33N 40°41' W 074°05'0 0.0
2017-Mar-17 22:33N 40°41' W 074°05'0 0.0
2017-Mar-17 21:33N 40°41' W 074°05'0 0.0
2017-Mar-17 19:33N 40°41' W 074°05'0 0.0
2017-Mar-17 18:33N 40°41' W 074°05'0 0.0
2017-Mar-17 17:33N 40°41' W 074°05'0 0.0
2017-Mar-17 16:33N 40°41' W 074°05'0 0.0
2017-Mar-17 15:33N 40°41' W 074°05'0 0.0
2017-Mar-17 14:33N 40°41' W 074°05'0 0.0
2017-Mar-17 13:33N 40°41' W 074°05'  

Dump ship's entire track history